Time;durP1;ratioP1;P1;durP2;ratioP2;P2;SDS_P1;SDS_P2;PMS_P1;PMS_P2;Temp;Humidity;BMP_temperature;BMP_pressure;BME280_temperature;BME280_humidity;BME280_pressure;Samples;Min_cycle;Max_cycle;Signal;HPM_P1;HPM_P2
2022/04/23 00:02:09;;;;;;;;;;;26.10;40.60;;;;;;5072593;28;990;-33
2022/04/23 00:04:35;;;;;;;;;;;26.10;40.60;;;;;;5072840;28;1069;-33
2022/04/23 00:07:02;;;;;;;;;;;26.00;40.60;;;;;;5073822;28;978;-33
2022/04/23 00:09:30;;;;;;;;;;;26.10;40.50;;;;;;5073102;28;1004;-33
2022/04/23 00:11:58;;;;;;;;;;;26.00;40.60;;;;;;5074163;28;1013;-33
2022/04/23 00:14:25;;;;;;;;;;;26.00;40.60;;;;;;5075964;28;923;-33
2022/04/23 00:16:53;;;;;;;;;;;26.00;40.70;;;;;;5075844;28;1011;-33
2022/04/23 00:19:20;;;;;;;;;;;26.00;40.60;;;;;;5074626;28;1976;-33
2022/04/23 00:21:47;;;;;;;;;;;25.90;40.60;;;;;;5074865;28;984;-33
2022/04/23 00:24:14;;;;;;;;;;;25.90;40.60;;;;;;5074765;28;839;-33
2022/04/23 00:26:42;;;;;;;;;;;26.00;40.60;;;;;;5073630;28;1011;-34
2022/04/23 00:29:09;;;;;;;;;;;26.00;40.40;;;;;;5073381;28;885;-33
2022/04/23 00:31:36;;;;;;;;;;;26.00;40.50;;;;;;5074438;28;988;-33
2022/04/23 00:34:03;;;;;;;;;;;26.00;40.50;;;;;;5075404;28;1039;-33
2022/04/23 00:36:30;;;;;;;;;;;25.90;40.40;;;;;;5075039;28;968;-33
2022/04/23 00:38:57;;;;;;;;;;;26.00;40.50;;;;;;5076055;28;1898;-33
2022/04/23 00:44:09;;;;;;;;;;;26.00;40.60;;;;;;5074783;28;636;-33
2022/04/23 00:46:36;;;;;;;;;;;25.90;40.50;;;;;;5075474;28;1042;-33
2022/04/23 00:49:03;;;;;;;;;;;26.00;40.40;;;;;;5075131;28;980;-33
2022/04/23 00:51:30;;;;;;;;;;;26.00;40.40;;;;;;5074702;28;958;-33
2022/04/23 00:53:57;;;;;;;;;;;25.90;40.40;;;;;;5075277;28;1018;-33
2022/04/23 00:56:24;;;;;;;;;;;25.90;40.50;;;;;;5073650;28;1123;-34
2022/04/23 00:58:51;;;;;;;;;;;25.90;40.40;;;;;;5073527;28;1910;-34
2022/04/23 01:01:23;;;;;;;;;;;25.90;40.30;;;;;;5074344;28;1298;-34
2022/04/23 01:03:50;;;;;;;;;;;26.00;40.40;;;;;;5072661;28;891;-34
2022/04/23 01:06:17;;;;;;;;;;;25.90;40.40;;;;;;5073384;28;993;-34
2022/04/23 01:08:43;;;;;;;;;;;25.90;40.40;;;;;;5073151;28;917;-34
2022/04/23 01:11:11;;;;;;;;;;;25.80;40.60;;;;;;5073080;28;979;-34
2022/04/23 01:13:37;;;;;;;;;;;25.90;40.60;;;;;;5074084;28;920;-34
2022/04/23 01:16:05;;;;;;;;;;;25.90;40.40;;;;;;5072890;28;1015;-34
2022/04/23 01:18:34;;;;;;;;;;;25.80;40.50;;;;;;5073223;28;976;-33
2022/04/23 01:21:02;;;;;;;;;;;25.80;40.60;;;;;;5072501;28;1906;-34
2022/04/23 01:23:30;;;;;;;;;;;25.80;40.50;;;;;;5074202;28;979;-34
2022/04/23 01:25:57;;;;;;;;;;;25.80;40.50;;;;;;5073322;28;947;-34
2022/04/23 01:28:25;;;;;;;;;;;25.80;40.50;;;;;;5072725;28;995;-33
2022/04/23 01:30:52;;;;;;;;;;;25.80;40.60;;;;;;5074000;28;897;-34
2022/04/23 01:33:19;;;;;;;;;;;25.80;40.50;;;;;;5073809;28;865;-36
2022/04/23 01:35:47;;;;;;;;;;;25.80;40.50;;;;;;5073395;28;1016;-34
2022/04/23 01:38:15;;;;;;;;;;;25.70;40.60;;;;;;5074320;28;945;-34
2022/04/23 01:40:42;;;;;;;;;;;25.80;40.60;;;;;;5073150;28;1910;-34
2022/04/23 01:43:09;;;;;;;;;;;25.80;40.70;;;;;;5073775;28;936;-34
2022/04/23 01:45:36;;;;;;;;;;;25.80;40.50;;;;;;5073165;28;998;-34
2022/04/23 01:48:03;;;;;;;;;;;25.80;40.40;;;;;;5074085;28;999;-34
2022/04/23 01:50:30;;;;;;;;;;;25.80;40.50;;;;;;5074183;28;1030;-34
2022/04/23 01:52:56;;;;;;;;;;;25.80;40.50;;;;;;5072716;28;1028;-34
2022/04/23 01:55:24;;;;;;;;;;;25.70;40.60;;;;;;5072095;28;956;-34
2022/04/23 01:57:51;;;;;;;;;;;25.80;40.60;;;;;;5072307;28;1007;-34
2022/04/23 02:00:18;;;;;;;;;;;25.80;40.50;;;;;;5072765;28;1910;-38
2022/04/23 02:02:46;;;;;;;;;;;25.80;40.60;;;;;;5073085;28;1086;-34
2022/04/23 02:05:13;;;;;;;;;;;25.70;40.70;;;;;;5073126;28;924;-40
2022/04/23 02:07:40;;;;;;;;;;;25.70;40.60;;;;;;5073032;28;1054;-40
2022/04/23 02:13:21;;;;;;;;;;;25.80;40.70;;;;;;5073859;28;1025;-40
2022/04/23 02:15:48;;;;;;;;;;;25.70;40.60;;;;;;5070895;28;987;-40
2022/04/23 02:18:15;;;;;;;;;;;25.70;40.70;;;;;;5072572;28;984;-38
2022/04/23 02:20:41;;;;;;;;;;;25.70;40.70;;;;;;5071617;28;1949;-38
2022/04/23 02:23:08;;;;;;;;;;;25.70;40.80;;;;;;5071032;28;912;-35
2022/04/23 02:25:36;;;;;;;;;;;25.70;40.80;;;;;;5073152;28;988;-35
2022/04/23 02:28:04;;;;;;;;;;;25.80;40.70;;;;;;5074054;28;894;-34
2022/04/23 02:30:32;;;;;;;;;;;25.80;40.70;;;;;;5072332;28;1047;-34
2022/04/23 02:32:59;;;;;;;;;;;25.80;40.50;;;;;;5074260;28;1026;-38
2022/04/23 02:35:26;;;;;;;;;;;25.80;40.50;;;;;;5074767;28;980;-38
2022/04/23 02:37:55;;;;;;;;;;;25.70;40.50;;;;;;5076233;28;1043;-40
2022/04/23 02:40:21;;;;;;;;;;;25.70;40.50;;;;;;5075527;28;1962;-35
2022/04/23 02:42:50;;;;;;;;;;;25.70;40.70;;;;;;5075092;28;1003;-34
2022/04/23 02:45:17;;;;;;;;;;;25.80;40.60;;;;;;5076351;28;1034;-35
2022/04/23 02:47:46;;;;;;;;;;;25.80;40.50;;;;;;5075632;28;921;-40
2022/04/23 02:50:12;;;;;;;;;;;25.70;40.60;;;;;;5075958;28;1021;-38
2022/04/23 02:52:41;;;;;;;;;;;25.80;40.60;;;;;;5076039;28;1034;-33
2022/04/23 02:55:08;;;;;;;;;;;25.80;40.50;;;;;;5077023;28;947;-38
2022/04/23 02:57:35;;;;;;;;;;;25.80;40.50;;;;;;5075922;28;981;-38
2022/04/23 03:00:04;;;;;;;;;;;25.70;40.60;;;;;;5075774;28;1902;-38
2022/04/23 03:02:36;;;;;;;;;;;25.70;40.70;;;;;;5075553;28;1398;-40
2022/04/23 03:05:09;;;;;;;;;;;25.70;40.50;;;;;;5076596;28;1026;-38
2022/04/23 03:07:42;;;;;;;;;;;25.70;40.60;;;;;;5077069;28;1041;-39
2022/04/23 03:10:10;;;;;;;;;;;25.70;40.60;;;;;;5075435;28;1848;-34
2022/04/23 03:12:38;;;;;;;;;;;25.70;40.60;;;;;;5075987;28;1015;-35
2022/04/23 03:15:05;;;;;;;;;;;25.60;40.50;;;;;;5076823;28;956;-34
2022/04/23 03:17:32;;;;;;;;;;;25.60;40.60;;;;;;5076979;28;1412;-34
2022/04/23 03:19:59;;;;;;;;;;;25.60;40.70;;;;;;5077000;28;1973;-40
2022/04/23 03:22:27;;;;;;;;;;;25.60;40.60;;;;;;5076053;28;854;-34
2022/04/23 03:24:54;;;;;;;;;;;25.60;40.80;;;;;;5074886;28;858;-34
2022/04/23 03:27:20;;;;;;;;;;;25.60;41.90;;;;;;5075091;28;959;-40
2022/04/23 03:29:47;;;;;;;;;;;25.60;40.60;;;;;;5075326;28;989;-38
2022/04/23 03:32:14;;;;;;;;;;;25.60;40.60;;;;;;5076882;28;933;-34
2022/04/23 03:34:41;;;;;;;;;;;25.60;40.60;;;;;;5076620;28;892;-37
2022/04/23 03:37:07;;;;;;;;;;;25.60;40.60;;;;;;5075835;28;1777;-38
2022/04/23 03:39:36;;;;;;;;;;;25.70;40.70;;;;;;5075161;28;1914;-38
2022/04/23 03:42:03;;;;;;;;;;;25.70;40.60;;;;;;5076789;28;943;-35
2022/04/23 03:44:30;;;;;;;;;;;25.70;40.60;;;;;;5074242;28;1678;-40
2022/04/23 03:46:57;;;;;;;;;;;25.60;40.60;;;;;;5075691;28;877;-34
2022/04/23 03:49:24;;;;;;;;;;;25.60;41.60;;;;;;5076032;28;1179;-34
2022/04/23 03:51:51;;;;;;;;;;;25.60;40.70;;;;;;5075647;28;947;-34
2022/04/23 03:54:17;;;;;;;;;;;25.60;40.50;;;;;;5075802;28;987;-35
2022/04/23 03:56:46;;;;;;;;;;;25.60;40.60;;;;;;5075741;28;943;-34
2022/04/23 03:59:14;;;;;;;;;;;25.60;40.70;;;;;;5075825;28;858;-34
2022/04/23 04:01:41;;;;;;;;;;;25.60;40.50;;;;;;5074450;28;1910;-34
2022/04/23 04:04:08;;;;;;;;;;;25.60;40.60;;;;;;5075088;28;1045;-40
2022/04/23 04:06:34;;;;;;;;;;;25.60;40.60;;;;;;5074312;28;959;-37
2022/04/23 04:09:01;;;;;;;;;;;25.50;40.60;;;;;;5073310;28;889;-38
2022/04/23 04:12:00;;;;;;;;;;;25.60;40.70;;;;;;5073326;28;928;-34
2022/04/23 04:14:16;;;;;;;;;;;25.60;40.80;;;;;;5074112;28;1012;-38
2022/04/23 04:16:43;;;;;;;;;;;25.60;40.70;;;;;;5074640;28;967;-35
2022/04/23 04:19:09;;;;;;;;;;;25.40;40.70;;;;;;5075407;28;940;-35
2022/04/23 04:21:36;;;;;;;;;;;25.50;40.70;;;;;;5074474;28;1966;-35
2022/04/23 04:24:03;;;;;;;;;;;25.50;40.60;;;;;;5074926;28;937;-34
2022/04/23 04:26:30;;;;;;;;;;;25.60;40.70;;;;;;5076063;28;987;-39
2022/04/23 04:28:56;;;;;;;;;;;25.60;40.70;;;;;;5074368;28;1007;-40
2022/04/23 04:34:09;;;;;;;;;;;25.70;40.50;;;;;;5072597;28;881;-37
2022/04/23 04:36:35;;;;;;;;;;;25.70;40.50;;;;;;5074672;28;916;-37
2022/04/23 04:39:02;;;;;;;;;;;25.60;40.50;;;;;;5074765;28;1421;-37
2022/04/23 04:41:31;;;;;;;;;;;25.50;40.70;;;;;;5073117;28;1969;-38
2022/04/23 04:43:58;;;;;;;;;;;25.60;40.60;;;;;;5074161;28;1003;-39
2022/04/23 04:46:26;;;;;;;;;;;25.60;40.70;;;;;;5074959;28;923;-34
2022/04/23 04:48:52;;;;;;;;;;;25.50;40.60;;;;;;5075615;28;940;-37
2022/04/23 04:51:19;;;;;;;;;;;25.60;40.60;;;;;;5073221;28;857;-37
2022/04/23 04:53:46;;;;;;;;;;;25.50;40.60;;;;;;5075291;28;958;-39
2022/04/23 04:56:12;;;;;;;;;;;25.60;40.50;;;;;;5074077;28;1226;-39
2022/04/23 04:58:43;;;;;;;;;;;25.50;40.60;;;;;;5074803;28;1010;-39
2022/04/23 05:01:10;;;;;;;;;;;25.50;40.70;;;;;;5073838;28;1898;-39
2022/04/23 05:03:40;;;;;;;;;;;25.50;40.70;;;;;;5072947;28;967;-33
2022/04/23 05:06:06;;;;;;;;;;;25.50;40.80;;;;;;5074982;28;971;-35
2022/04/23 05:08:35;;;;;;;;;;;25.50;40.60;;;;;;5073948;28;1034;-39
2022/04/23 05:11:01;;;;;;;;;;;25.50;40.70;;;;;;5071856;28;995;-37
2022/04/23 05:13:28;;;;;;;;;;;25.50;40.60;;;;;;5073471;28;994;-37
2022/04/23 05:15:55;;;;;;;;;;;25.50;40.70;;;;;;5074116;28;1063;-35
2022/04/23 05:18:21;;;;;;;;;;;25.50;40.60;;;;;;5072239;28;976;-33
2022/04/23 05:20:50;;;;;;;;;;;25.50;40.70;;;;;;5072281;28;1901;-34
2022/04/23 05:23:16;;;;;;;;;;;25.50;40.70;;;;;;5073005;28;964;-34
2022/04/23 05:25:43;;;;;;;;;;;25.50;41.80;;;;;;5073279;28;876;-34
2022/04/23 05:28:10;;;;;;;;;;;25.50;40.70;;;;;;5073019;28;1002;-33
2022/04/23 05:30:37;;;;;;;;;;;25.50;40.70;;;;;;5072360;28;848;-33
2022/04/23 05:33:03;;;;;;;;;;;25.50;40.80;;;;;;5072420;28;1783;-33
2022/04/23 05:35:30;;;;;;;;;;;25.40;40.80;;;;;;5071394;28;966;-33
2022/04/23 05:37:58;;;;;;;;;;;25.40;40.80;;;;;;5071356;28;1032;-39
2022/04/23 05:40:25;;;;;;;;;;;25.50;40.70;;;;;;5072823;28;1905;-37
2022/04/23 05:42:55;;;;;;;;;;;25.50;40.70;;;;;;5072458;28;930;-39
2022/04/23 05:45:23;;;;;;;;;;;25.50;40.70;;;;;;5072210;28;869;-34
2022/04/23 05:47:49;;;;;;;;;;;25.40;40.70;;;;;;5073165;28;914;-40
2022/04/23 05:50:16;;;;;;;;;;;25.40;40.70;;;;;;5072397;28;893;-40
2022/04/23 05:52:43;;;;;;;;;;;25.40;40.80;;;;;;5072125;28;1023;-39
2022/04/23 05:55:11;;;;;;;;;;;25.40;40.90;;;;;;5072159;28;980;-39
2022/04/23 05:57:38;;;;;;;;;;;25.40;40.80;;;;;;5071925;28;997;-37
2022/04/23 06:00:05;;;;;;;;;;;25.40;40.80;;;;;;5071920;28;1019;-40
2022/04/23 06:02:32;;;;;;;;;;;25.40;40.90;;;;;;5071580;28;1897;-35
2022/04/23 06:04:59;;;;;;;;;;;25.40;40.90;;;;;;5068006;28;1033;-35
2022/04/23 06:07:25;;;;;;;;;;;25.40;40.80;;;;;;5056817;28;960;-37
2022/04/23 06:09:52;;;;;;;;;;;25.40;40.80;;;;;;5065943;28;1130;-37
2022/04/23 06:12:20;;;;;;;;;;;25.40;40.80;;;;;;5073648;28;983;-35
2022/04/23 06:14:49;;;;;;;;;;;25.50;40.70;;;;;;5072647;28;1059;-37
2022/04/23 06:17:17;;;;;;;;;;;25.50;40.90;;;;;;5072937;28;951;-37
2022/04/23 06:19:44;;;;;;;;;;;25.40;40.80;;;;;;5074248;28;1020;-37
2022/04/23 06:22:10;;;;;;;;;;;25.40;40.80;;;;;;5073029;28;1913;-35
2022/04/23 06:24:37;;;;;;;;;;;25.40;40.80;;;;;;5072918;28;1776;-34
2022/04/23 06:27:04;;;;;;;;;;;25.40;40.90;;;;;;5074480;28;893;-39
2022/04/23 06:29:32;;;;;;;;;;;25.40;41.00;;;;;;5075559;28;985;-40
2022/04/23 06:31:59;;;;;;;;;;;25.40;40.90;;;;;;5069932;28;937;-39
2022/04/23 06:34:26;;;;;;;;;;;25.40;40.80;;;;;;5073223;28;944;-35
2022/04/23 06:36:53;;;;;;;;;;;25.40;40.80;;;;;;5073503;28;956;-35
2022/04/23 06:39:19;;;;;;;;;;;25.50;40.80;;;;;;5072197;28;1169;-34
2022/04/23 06:41:46;;;;;;;;;;;25.50;40.90;;;;;;5070570;28;2027;-37
2022/04/23 06:44:13;;;;;;;;;;;25.50;40.90;;;;;;5072022;28;987;-35
2022/04/23 06:46:41;;;;;;;;;;;25.50;40.90;;;;;;5071379;28;950;-38
2022/04/23 06:49:07;;;;;;;;;;;25.50;40.80;;;;;;5071069;28;990;-37
2022/04/23 06:51:37;;;;;;;;;;;25.50;40.90;;;;;;5071144;28;980;-39
2022/04/23 06:54:03;;;;;;;;;;;25.40;40.80;;;;;;5071192;28;888;-39
2022/04/23 06:56:31;;;;;;;;;;;25.50;40.90;;;;;;5071085;28;896;-34
2022/04/23 06:58:59;;;;;;;;;;;25.40;40.90;;;;;;5071604;28;999;-36
2022/04/23 07:01:25;;;;;;;;;;;25.40;41.00;;;;;;5070079;28;2000;-35
2022/04/23 07:03:53;;;;;;;;;;;25.40;41.00;;;;;;5071204;28;996;-35
2022/04/23 07:06:20;;;;;;;;;;;25.40;40.90;;;;;;5069792;28;948;-35
2022/04/23 07:08:47;;;;;;;;;;;25.50;41.00;;;;;;5069824;28;987;-34
2022/04/23 07:11:13;;;;;;;;;;;25.40;41.00;;;;;;5069064;28;1046;-35
2022/04/23 07:13:40;;;;;;;;;;;25.50;41.10;;;;;;5069478;28;1003;-35
2022/04/23 07:16:09;;;;;;;;;;;25.40;40.90;;;;;;5069391;28;995;-34
2022/04/23 07:18:39;;;;;;;;;;;25.40;41.00;;;;;;5069764;28;1108;-35
2022/04/23 07:21:07;;;;;;;;;;;25.40;41.10;;;;;;5073909;28;1898;-36
2022/04/23 07:26:18;;;;;;;;;;;25.40;41.20;;;;;;5073359;28;680;-33
2022/04/23 07:28:44;;;;;;;;;;;25.40;41.20;;;;;;5072081;28;1035;-35
2022/04/23 07:31:11;;;;;;;;;;;25.50;41.10;;;;;;5070599;28;900;-34
2022/04/23 07:39:08;;;;;;;;;;;25.50;41.10;;;;;;5071469;28;1012;-36
2022/04/23 07:41:34;;;;;;;;;;;25.50;41.00;;;;;;5071708;28;1894;-39
2022/04/23 07:44:01;;;;;;;;;;;25.60;41.30;;;;;;5070838;28;889;-42
2022/04/23 07:46:28;;;;;;;;;;;25.60;41.10;;;;;;5070305;28;1020;-43
2022/04/23 07:48:57;;;;;;;;;;;25.60;41.20;;;;;;5071463;28;1023;-42
2022/04/23 07:51:26;;;;;;;;;;;25.60;41.30;;;;;;5070252;28;770;-37
2022/04/23 07:53:53;;;;;;;;;;;25.70;41.40;;;;;;5069538;28;965;-39
2022/04/23 07:56:20;;;;;;;;;;;25.60;41.50;;;;;;5067973;28;976;-39
2022/04/23 07:58:47;;;;;;;;;;;25.60;41.60;;;;;;5072130;28;1051;-41
2022/04/23 08:01:13;;;;;;;;;;;25.60;41.60;;;;;;5068475;28;1902;-40
2022/04/23 08:03:41;;;;;;;;;;;25.70;41.70;;;;;;5069941;28;892;-39
2022/04/23 08:06:10;;;;;;;;;;;25.60;41.80;;;;;;5070796;28;1027;-39
2022/04/23 08:08:38;;;;;;;;;;;25.60;41.80;;;;;;5070644;28;968;-36
2022/04/23 08:11:05;;;;;;;;;;;25.60;41.80;;;;;;5070254;28;972;-36
2022/04/23 08:13:32;;;;;;;;;;;25.60;41.70;;;;;;5068663;28;1007;-38
2022/04/23 08:15:59;;;;;;;;;;;25.60;41.80;;;;;;5069347;28;1202;-39
2022/04/23 08:18:26;;;;;;;;;;;25.60;41.70;;;;;;5070398;28;984;-40
2022/04/23 08:20:53;;;;;;;;;;;25.70;42.80;;;;;;5069061;28;964;-37
2022/04/23 08:23:20;;;;;;;;;;;25.70;41.70;;;;;;5068446;28;1965;-41
2022/04/23 08:25:48;;;;;;;;;;;25.60;41.60;;;;;;5070016;28;1002;-39
2022/04/23 08:30:59;;;;;;;;;;;25.70;41.90;;;;;;5071048;28;635;-40
2022/04/23 08:33:57;;;;;;;;;;;25.60;41.40;;;;;;5069118;28;1040;-39
2022/04/23 08:36:13;;;;;;;;;;;25.60;41.30;;;;;;5068995;28;848;-39
2022/04/23 08:38:40;;;;;;;;;;;25.60;41.10;;;;;;5069255;28;929;-39
2022/04/23 08:41:10;;;;;;;;;;;25.60;41.10;;;;;;5068877;28;1905;-39
2022/04/23 08:43:37;;;;;;;;;;;25.60;41.40;;;;;;5069704;28;1012;-43
2022/04/23 08:46:04;;;;;;;;;;;25.60;41.40;;;;;;5069838;28;999;-43
2022/04/23 08:48:39;;;;;;;;;;;25.60;41.30;;;;;;5071827;28;872;-41
2022/04/23 08:51:06;;;;;;;;;;;25.60;41.30;;;;;;5070482;28;928;-38
2022/04/23 08:53:35;;;;;;;;;;;25.60;41.00;;;;;;5071149;28;1011;-38
2022/04/23 08:56:02;;;;;;;;;;;25.60;41.30;;;;;;5070081;28;1000;-38
2022/04/23 08:58:31;;;;;;;;;;;25.60;41.10;;;;;;5071580;28;925;-39
2022/04/23 09:00:58;;;;;;;;;;;25.60;41.10;;;;;;5070542;28;838;-38
2022/04/23 09:03:24;;;;;;;;;;;25.70;41.00;;;;;;5067746;28;1985;-38
2022/04/23 09:05:51;;;;;;;;;;;25.70;41.20;;;;;;5068884;28;1008;-38
2022/04/23 09:08:18;;;;;;;;;;;25.70;40.90;;;;;;5069681;28;888;-38
2022/04/23 09:10:46;;;;;;;;;;;25.70;40.70;;;;;;5071528;28;1008;-37
2022/04/23 09:13:24;;;;;;;;;;;25.70;40.50;;;;;;5069677;28;1013;-38
2022/04/23 09:24:16;;;;;;;;;;;26.00;40.10;;;;;;5067038;28;898;-38
2022/04/23 09:26:43;;;;;;;;;;;26.00;39.90;;;;;;5066534;28;935;-38
2022/04/23 09:29:13;;;;;;;;;;;26.10;39.80;;;;;;5064915;28;1021;-37
2022/04/23 09:31:41;;;;;;;;;;;26.00;40.10;;;;;;5066726;28;861;-39
2022/04/23 09:34:15;;;;;;;;;;;25.90;40.20;;;;;;5064748;28;968;-37
2022/04/23 09:36:49;;;;;;;;;;;25.90;40.40;;;;;;5065542;28;1011;-39
2022/04/23 09:39:15;;;;;;;;;;;25.90;40.20;;;;;;5066024;28;1059;-39
2022/04/23 09:41:42;;;;;;;;;;;25.80;40.00;;;;;;5066281;28;2004;-39
2022/04/23 09:44:12;;;;;;;;;;;25.90;40.00;;;;;;5067555;28;978;-39
2022/04/23 09:46:47;;;;;;;;;;;25.90;39.70;;;;;;5067177;28;874;-38
2022/04/23 09:49:19;;;;;;;;;;;25.90;39.70;;;;;;5066995;28;1003;-38
2022/04/23 09:51:59;;;;;;;;;;;25.90;39.70;;;;;;5066773;28;1516;-38
2022/04/23 09:54:26;;;;;;;;;;;26.10;39.80;;;;;;5066326;28;1011;-38
2022/04/23 09:56:53;;;;;;;;;;;26.10;39.70;;;;;;5066180;28;940;-39
2022/04/23 09:59:20;;;;;;;;;;;26.10;39.80;;;;;;5067260;28;1008;-38
2022/04/23 10:01:49;;;;;;;;;;;26.10;39.70;;;;;;5066061;28;1973;-38
2022/04/23 10:04:18;;;;;;;;;;;26.10;40.30;;;;;;5067401;28;941;-39
2022/04/23 10:06:45;;;;;;;;;;;26.10;40.40;;;;;;5066068;28;991;-37
2022/04/23 10:09:13;;;;;;;;;;;26.00;40.10;;;;;;5067153;28;889;-39
2022/04/23 10:11:42;;;;;;;;;;;25.90;41.40;;;;;;5064777;28;1160;-39
2022/04/23 10:14:13;;;;;;;;;;;25.80;40.20;;;;;;5065728;28;956;-40
2022/04/23 10:16:41;;;;;;;;;;;25.90;40.30;;;;;;5067410;28;967;-39
2022/04/23 10:19:10;;;;;;;;;;;25.90;40.30;;;;;;5067522;28;995;-38
2022/04/23 10:21:40;;;;;;;;;;;25.80;40.30;;;;;;5066646;28;1902;-41
2022/04/23 10:24:08;;;;;;;;;;;25.80;40.40;;;;;;5066595;28;967;-40
2022/04/23 10:26:43;;;;;;;;;;;25.80;40.50;;;;;;5067189;28;881;-38
2022/04/23 10:29:10;;;;;;;;;;;25.80;40.50;;;;;;5067203;28;985;-38
2022/04/23 10:31:37;;;;;;;;;;;25.80;40.50;;;;;;5067167;28;955;-38
2022/04/23 10:34:04;;;;;;;;;;;25.80;40.50;;;;;;5067795;28;940;-39
2022/04/23 10:36:32;;;;;;;;;;;25.80;40.50;;;;;;5067955;28;1018;-39
2022/04/23 10:39:18;;;;;;;;;;;25.80;40.50;;;;;;5066476;28;1109;-40
2022/04/23 10:41:45;;;;;;;;;;;25.80;40.60;;;;;;5067637;28;1980;-37
2022/04/23 10:44:12;;;;;;;;;;;25.80;40.50;;;;;;5065784;28;1015;-37
2022/04/23 10:46:46;;;;;;;;;;;25.70;40.50;;;;;;5067593;28;979;-39
2022/04/23 10:49:16;;;;;;;;;;;25.70;40.50;;;;;;5067610;28;974;-39
2022/04/23 10:51:51;;;;;;;;;;;25.70;40.70;;;;;;5067803;28;842;-38
2022/04/23 10:54:19;;;;;;;;;;;25.70;40.70;;;;;;5070692;28;1030;-39
2022/04/23 10:56:50;;;;;;;;;;;25.70;40.70;;;;;;5070399;28;1032;-38
2022/04/23 10:59:38;;;;;;;;;;;25.70;40.80;;;;;;5071528;28;1147;-38
2022/04/23 11:02:06;;;;;;;;;;;25.70;40.80;;;;;;5071411;28;1992;-37
2022/04/23 11:04:33;;;;;;;;;;;25.70;40.90;;;;;;5070216;28;1054;-39
2022/04/23 11:12:33;;;;;;;;;;;25.70;40.90;;;;;;5069881;28;603;-38
2022/04/23 11:15:00;;;;;;;;;;;25.70;40.80;;;;;;5071624;28;990;-39
2022/04/23 11:17:46;;;;;;;;;;;25.70;40.80;;;;;;5070421;28;993;-42
2022/04/23 11:20:14;;;;;;;;;;;25.70;42.10;;;;;;5069916;28;941;-40
2022/04/23 11:22:42;;;;;;;;;;;25.70;40.90;;;;;;5070375;28;1988;-38
2022/04/23 11:25:09;;;;;;;;;;;25.70;40.90;;;;;;5068728;28;940;-38
2022/04/23 11:27:37;;;;;;;;;;;25.70;41.00;;;;;;5070225;28;893;-36
2022/04/23 11:30:04;;;;;;;;;;;25.70;41.00;;;;;;5070814;28;861;-41
2022/04/23 11:32:31;;;;;;;;;;;25.70;41.00;;;;;;5068867;28;1044;-40
2022/04/23 11:34:59;;;;;;;;;;;25.70;41.00;;;;;;5069024;28;1002;-40
2022/04/23 11:37:29;;;;;;;;;;;25.60;40.90;;;;;;5070188;28;929;-40
2022/04/23 11:40:05;;;;;;;;;;;25.60;41.00;;;;;;5070617;28;1055;-40
2022/04/23 11:42:41;;;;;;;;;;;25.70;41.00;;;;;;5070616;28;1913;-40
2022/04/23 11:45:08;;;;;;;;;;;25.70;41.00;;;;;;5070264;28;985;-40
2022/04/23 11:47:35;;;;;;;;;;;25.70;40.90;;;;;;5069548;28;1047;-41
2022/04/23 11:50:09;;;;;;;;;;;25.70;40.90;;;;;;5068296;28;1048;-39
2022/04/23 11:52:36;;;;;;;;;;;25.70;41.00;;;;;;5068523;28;1015;-38
2022/04/23 11:55:03;;;;;;;;;;;25.70;41.00;;;;;;5070197;28;964;-39
2022/04/23 11:57:31;;;;;;;;;;;25.70;41.00;;;;;;5068274;28;857;-42
2022/04/23 12:00:00;;;;;;;;;;;25.70;41.20;;;;;;5066967;28;1102;-40
2022/04/23 12:02:27;;;;;;;;;;;25.70;41.00;;;;;;5069754;28;1902;-42
2022/04/23 12:04:54;;;;;;;;;;;25.70;41.00;;;;;;5066748;28;979;-41
2022/04/23 12:07:22;;;;;;;;;;;25.70;41.10;;;;;;5068844;28;852;-40
2022/04/23 12:09:50;;;;;;;;;;;25.80;41.10;;;;;;5069173;28;1000;-41
2022/04/23 12:12:19;;;;;;;;;;;25.70;40.90;;;;;;5067909;28;979;-40
2022/04/23 12:14:49;;;;;;;;;;;25.70;41.00;;;;;;5068431;28;1713;-40
2022/04/23 12:17:22;;;;;;;;;;;25.70;41.00;;;;;;5047794;28;1991;-37
2022/04/23 12:19:49;;;;;;;;;;;25.80;41.10;;;;;;5046956;28;1052;-38
2022/04/23 12:22:23;;;;;;;;;;;25.70;41.00;;;;;;5047056;28;1981;-37
2022/04/23 12:24:50;;;;;;;;;;;25.80;41.10;;;;;;5048395;28;972;-40
2022/04/23 12:27:17;;;;;;;;;;;25.80;41.00;;;;;;5046836;28;933;-39
2022/04/23 12:40:51;;;;;;;;;;;25.80;41.00;;;;;;5050008;28;1056;-39
2022/04/23 12:43:35;;;;;;;;;;;25.80;40.90;;;;;;5049607;28;1902;-40
2022/04/23 12:46:05;;;;;;;;;;;25.80;40.90;;;;;;5048425;28;977;-40
2022/04/23 12:48:33;;;;;;;;;;;25.80;40.90;;;;;;5049786;28;1024;-40
2022/04/23 12:51:05;;;;;;;;;;;25.90;41.00;;;;;;5046982;28;846;-37
2022/04/23 12:53:33;;;;;;;;;;;25.90;40.90;;;;;;5047293;28;971;-38
2022/04/23 12:56:02;;;;;;;;;;;25.90;40.90;;;;;;5046694;28;981;-38
2022/04/23 12:58:29;;;;;;;;;;;25.90;40.90;;;;;;5047967;28;972;-39
2022/04/23 13:00:55;;;;;;;;;;;25.90;40.90;;;;;;5047405;28;989;-35
2022/04/23 13:03:32;;;;;;;;;;;25.90;41.00;;;;;;5044176;28;1985;-37
2022/04/23 13:05:58;;;;;;;;;;;25.90;41.00;;;;;;5046988;28;1008;-39
2022/04/23 13:11:26;;;;;;;;;;;25.90;40.90;;;;;;5047476;28;637;-38
2022/04/23 13:13:54;;;;;;;;;;;25.90;40.90;;;;;;5048299;28;961;-38
2022/04/23 13:16:21;;;;;;;;;;;25.90;40.90;;;;;;5047055;28;945;-41
2022/04/23 13:18:50;;;;;;;;;;;25.90;40.90;;;;;;5037622;28;912;-41
2022/04/23 13:21:17;;;;;;;;;;;26.00;42.10;;;;;;5034746;28;857;-39
2022/04/23 13:23:43;;;;;;;;;;;26.00;41.00;;;;;;5046294;28;1914;-39
2022/04/23 13:26:10;;;;;;;;;;;26.00;40.90;;;;;;5047780;28;944;-40
2022/04/23 13:28:37;;;;;;;;;;;26.00;40.90;;;;;;5046557;28;973;-40
2022/04/23 13:31:04;;;;;;;;;;;26.00;40.90;;;;;;5046577;28;925;-41
2022/04/23 13:33:30;;;;;;;;;;;26.00;40.90;;;;;;5048097;28;985;-40
2022/04/23 13:35:58;;;;;;;;;;;26.00;40.90;;;;;;5048261;28;957;-38
2022/04/23 13:38:25;;;;;;;;;;;26.10;41.00;;;;;;5048338;28;904;-35
2022/04/23 13:40:52;;;;;;;;;;;26.10;41.00;;;;;;5049385;28;1260;-40
2022/04/23 13:43:19;;;;;;;;;;;26.00;40.90;;;;;;5048742;28;1913;-39
2022/04/23 13:45:46;;;;;;;;;;;26.10;41.00;;;;;;5046222;28;1940;-40
2022/04/23 13:48:13;;;;;;;;;;;26.10;41.00;;;;;;5047929;28;970;-40
2022/04/23 13:50:40;;;;;;;;;;;26.10;41.00;;;;;;5048582;28;996;-39
2022/04/23 13:53:08;;;;;;;;;;;26.10;41.00;;;;;;5048186;28;1110;-37
2022/04/23 13:55:35;;;;;;;;;;;26.10;41.00;;;;;;5048338;28;944;-38
2022/04/23 13:58:02;;;;;;;;;;;26.10;41.00;;;;;;5047761;28;953;-38
2022/04/23 14:00:28;;;;;;;;;;;26.10;41.00;;;;;;5045666;28;1087;-38
2022/04/23 14:11:09;;;;;;;;;;;26.10;40.90;;;;;;5045491;28;686;-37
2022/04/23 14:13:37;;;;;;;;;;;26.10;41.00;;;;;;5046596;28;881;-36
2022/04/23 14:16:04;;;;;;;;;;;26.10;41.00;;;;;;5045697;28;989;-38
2022/04/23 14:18:31;;;;;;;;;;;26.10;40.90;;;;;;5046284;28;1028;-39
2022/04/23 14:20:58;;;;;;;;;;;26.20;41.00;;;;;;5046217;28;1004;-38
2022/04/23 14:23:26;;;;;;;;;;;26.20;41.10;;;;;;5047405;28;1903;-40
2022/04/23 14:25:53;;;;;;;;;;;26.10;41.00;;;;;;5046088;28;942;-41
2022/04/23 14:28:20;;;;;;;;;;;26.20;41.00;;;;;;5048757;28;992;-40
2022/04/23 14:30:47;;;;;;;;;;;26.20;41.00;;;;;;5051093;28;1775;-41
2022/04/23 14:33:13;;;;;;;;;;;26.20;40.90;;;;;;5051307;28;937;-41
2022/04/23 14:35:41;;;;;;;;;;;26.20;41.00;;;;;;5052022;28;988;-40
2022/04/23 14:38:07;;;;;;;;;;;26.20;41.00;;;;;;5051923;28;1020;-40
2022/04/23 14:40:37;;;;;;;;;;;26.20;41.00;;;;;;5051672;28;1222;-41
2022/04/23 14:43:05;;;;;;;;;;;26.20;42.20;;;;;;5051602;28;1910;-40
2022/04/23 14:45:33;;;;;;;;;;;26.20;41.00;;;;;;5050849;28;1001;-40
2022/04/23 14:48:00;;;;;;;;;;;26.20;41.00;;;;;;5050657;28;1014;-41
2022/04/23 14:53:10;;;;;;;;;;;26.20;41.10;;;;;;5051899;28;956;-40
2022/04/23 14:53:13;;;;;;;;;;;26.20;41.00;;;;;;5051557;28;883;-40
2022/04/23 14:55:41;;;;;;;;;;;26.20;41.00;;;;;;5050848;28;838;-40
2022/04/23 14:58:09;;;;;;;;;;;26.20;41.00;;;;;;5051451;28;886;-41
2022/04/23 15:00:36;;;;;;;;;;;26.20;41.00;;;;;;5050137;28;1021;-41
2022/04/23 15:03:03;;;;;;;;;;;26.20;40.90;;;;;;5049620;28;1970;-40
2022/04/23 15:05:29;;;;;;;;;;;26.20;41.00;;;;;;5050299;28;979;-40
2022/04/23 15:07:56;;;;;;;;;;;26.20;41.00;;;;;;5049903;28;985;-40
2022/04/23 15:10:23;;;;;;;;;;;26.30;41.10;;;;;;5049442;28;996;-41
2022/04/23 15:12:51;;;;;;;;;;;26.20;41.00;;;;;;5050081;28;1004;-41
2022/04/23 15:15:18;;;;;;;;;;;26.20;41.00;;;;;;5048855;28;1007;-40
2022/04/23 15:17:45;;;;;;;;;;;26.20;41.10;;;;;;5050495;28;919;-41
2022/04/23 15:20:13;;;;;;;;;;;26.20;41.20;;;;;;5051519;28;858;-40
2022/04/23 15:22:40;;;;;;;;;;;26.20;41.00;;;;;;5051748;28;989;-40
2022/04/23 15:25:10;;;;;;;;;;;26.20;41.00;;;;;;5052592;28;1977;-40
2022/04/23 15:27:36;;;;;;;;;;;26.20;41.00;;;;;;5049930;28;971;-40
2022/04/23 15:30:05;;;;;;;;;;;26.10;41.00;;;;;;5047887;28;973;-40
2022/04/23 15:32:32;;;;;;;;;;;26.20;41.00;;;;;;5050673;28;973;-40
2022/04/23 15:34:59;;;;;;;;;;;26.20;41.00;;;;;;5048020;28;995;-41
2022/04/23 15:37:25;;;;;;;;;;;26.20;41.10;;;;;;5049690;28;1018;-41
2022/04/23 15:39:53;;;;;;;;;;;26.20;41.10;;;;;;5047144;28;1214;-40